Time;durP1;ratioP1;P1;durP2;ratioP2;P2;SDS_P1;SDS_P2;PMS_P1;PMS_P2;Temp;Humidity;BMP_temperature;BMP_pressure;BME280_temperature;BME280_humidity;BME280_pressure;Samples;Min_cycle;Max_cycle;Signal;HPM_P1;HPM_P2
2022/03/03 00:02:17;;;;;;;30.02;24.55;;;11.30;69.80;;;;;;5073385;28;20020;-83
2022/03/03 00:04:43;;;;;;;29.60;24.13;;;11.30;69.90;;;;;;5073372;28;20089;-83
2022/03/03 00:07:09;;;;;;;30.63;25.05;;;11.30;69.80;;;;;;5073445;28;20449;-83
2022/03/03 00:09:35;;;;;;;35.22;24.98;;;11.30;69.90;;;;;;5091459;28;20056;-82
2022/03/03 00:12:01;;;;;;;30.15;25.17;;;11.30;69.90;;;;;;5056110;28;20467;-82
2022/03/03 00:14:27;;;;;;;30.77;23.95;;;11.30;69.90;;;;;;5091692;28;20054;-83
2022/03/03 00:16:53;;;;;;;31.25;25.13;;;11.20;69.70;;;;;;5092736;28;20074;-82
2022/03/03 00:19:19;;;;;;;31.00;25.42;;;11.30;70.00;;;;;;5075560;28;20028;-83
2022/03/03 00:21:45;;;;;;;31.67;24.98;;;11.20;69.70;;;;;;5074152;28;20054;-82
2022/03/03 00:24:11;;;;;;;32.42;24.10;;;11.20;69.80;;;;;;5073544;28;20573;-82
2022/03/03 00:26:37;;;;;;;30.67;24.85;;;11.20;69.80;;;;;;5073049;28;20102;-82
2022/03/03 00:29:04;;;;;;;30.40;23.95;;;11.20;69.80;;;;;;5072332;28;20035;-82
2022/03/03 00:31:30;;;;;;;28.58;24.10;;;11.20;69.80;;;;;;5090576;28;20071;-83
2022/03/03 00:33:56;;;;;;;32.80;26.40;;;11.20;69.80;;;;;;5071301;28;20088;-82
2022/03/03 00:36:22;;;;;;;32.33;26.30;;;11.20;69.80;;;;;;5090100;28;20274;-82
2022/03/03 00:38:48;;;;;;;30.73;25.30;;;11.10;69.70;;;;;;5071631;28;20028;-84
2022/03/03 00:41:14;;;;;;;31.33;23.90;;;11.10;69.70;;;;;;5071851;28;20038;-84
2022/03/03 00:43:41;;;;;;;31.77;26.10;;;11.10;69.70;;;;;;5090228;28;20177;-84
2022/03/03 00:46:07;;;;;;;31.63;24.35;;;11.10;69.70;;;;;;5071591;28;20028;-84
2022/03/03 00:48:33;;;;;;;32.88;25.92;;;11.10;69.70;;;;;;5071914;28;20048;-84
2022/03/03 00:51:00;;;;;;;31.70;26.38;;;11.10;69.80;;;;;;5089809;28;20038;-84
2022/03/03 00:53:26;;;;;;;32.72;25.65;;;11.10;69.80;;;;;;5089971;28;20031;-84
2022/03/03 00:55:52;;;;;;;33.05;26.05;;;11.10;69.80;;;;;;5071488;28;20036;-83
2022/03/03 00:58:19;;;;;;;29.50;25.13;;;11.00;69.70;;;;;;5071762;28;20055;-85
2022/03/03 01:00:45;;;;;;;31.08;25.83;;;11.00;69.70;;;;;;5071212;28;20032;-83
2022/03/03 01:03:11;;;;;;;31.05;25.48;;;11.00;69.80;;;;;;5089023;28;20506;-81
2022/03/03 01:05:37;;;;;;;37.88;28.48;;;11.00;69.80;;;;;;5089405;28;20016;-82
2022/03/03 01:08:08;;;;;;;32.15;25.77;;;11.00;69.80;;;;;;5089097;28;20024;-83
2022/03/03 01:10:34;;;;;;;34.13;27.65;;;11.00;69.80;;;;;;5070329;28;20078;-83
2022/03/03 01:13:00;;;;;;;35.15;28.00;;;11.00;69.80;;;;;;5078855;28;20028;-83
2022/03/03 01:15:26;;;;;;;32.70;27.05;;;11.00;69.80;;;;;;5068239;28;20169;-82
2022/03/03 01:17:52;;;;;;;30.10;26.33;;;11.00;69.80;;;;;;5083498;28;20028;-82
2022/03/03 01:20:18;;;;;;;34.60;28.30;;;11.00;69.80;;;;;;5070517;28;20563;-83
2022/03/03 01:22:44;;;;;;;33.33;26.60;;;11.00;69.80;;;;;;5054452;28;20032;-83
2022/03/03 01:25:10;;;;;;;32.40;26.70;;;11.00;69.90;;;;;;5088516;28;20023;-80
2022/03/03 01:27:38;;;;;;;36.25;27.63;;;11.00;69.90;;;;;;5075475;28;20036;-81
2022/03/03 01:30:08;;;;;;;31.95;26.42;;;11.00;69.90;;;;;;5068040;28;20048;-82
2022/03/03 01:32:34;;;;;;;31.08;26.73;;;11.00;69.90;;;;;;5050430;28;20024;-81
2022/03/03 01:35:00;;;;;;;36.03;28.30;;;11.00;70.40;;;;;;5068071;28;20889;-81
2022/03/03 01:37:26;;;;;;;36.35;27.20;;;11.00;70.40;;;;;;5050078;28;20021;-82
2022/03/03 01:39:52;;;;;;;34.85;27.85;;;11.00;69.90;;;;;;5050380;28;20448;-81
2022/03/03 01:42:19;;;;;;;33.20;27.60;;;11.00;69.90;;;;;;5067759;28;20020;-81
2022/03/03 01:44:46;;;;;;;36.63;28.42;;;11.00;70.00;;;;;;5067747;28;20408;-81
2022/03/03 01:47:23;;;;;;;35.83;28.30;;;11.00;70.00;;;;;;5046383;28;20864;-80
2022/03/03 01:49:51;;;;;;;37.42;28.35;;;11.00;70.00;;;;;;5029773;28;20037;-81
2022/03/03 01:52:19;;;;;;;33.40;27.17;;;11.00;70.00;;;;;;5046932;28;20082;-81
2022/03/03 01:54:45;;;;;;;32.28;26.73;;;10.90;69.80;;;;;;5029951;28;20037;-81
2022/03/03 01:57:11;;;;;;;33.13;27.48;;;10.90;69.80;;;;;;5047875;28;20029;-81
2022/03/03 01:59:38;;;;;;;32.75;28.20;;;10.90;69.80;;;;;;5045765;28;20029;-81
2022/03/03 02:02:07;;;;;;;33.95;27.30;;;10.90;70.40;;;;;;5046579;28;20070;-80
2022/03/03 02:04:33;;;;;;;34.65;28.40;;;10.90;69.90;;;;;;5046256;28;20033;-81
2022/03/03 02:07:00;;;;;;;33.53;28.25;;;10.90;70.00;;;;;;5047458;28;20029;-81
2022/03/03 02:09:26;;;;;;;33.45;26.95;;;10.80;69.80;;;;;;5047573;28;20033;-81
2022/03/03 02:11:52;;;;;;;40.47;29.30;;;10.80;69.90;;;;;;5046608;28;20103;-81
2022/03/03 02:14:19;;;;;;;37.90;29.42;;;10.80;69.90;;;;;;5046712;28;20044;-80
2022/03/03 02:16:45;;;;;;;36.30;27.75;;;10.80;69.90;;;;;;5047210;28;20083;-81
2022/03/03 02:19:18;;;;;;;37.38;28.50;;;10.80;70.00;;;;;;5047341;28;20024;-81
2022/03/03 02:21:51;;;;;;;33.45;26.83;;;10.80;70.00;;;;;;5029024;28;20025;-80
2022/03/03 02:24:19;;;;;;;;;;;10.70;69.90;;;;;;5046328;28;20094;-83
2022/03/03 02:26:47;;;;;;;36.45;28.75;;;10.70;69.90;;;;;;5046197;28;19920;-84
2022/03/03 02:29:14;;;;;;;37.33;28.77;;;10.70;69.80;;;;;;5047421;28;20029;-83
2022/03/03 02:31:40;;;;;;;37.00;29.73;;;10.70;69.80;;;;;;5051555;28;20223;-84
2022/03/03 02:34:07;;;;;;;36.97;29.35;;;10.70;69.90;;;;;;5058486;28;20476;-83
2022/03/03 02:36:33;;;;;;;35.33;28.92;;;10.70;69.90;;;;;;5062351;28;20423;-83
2022/03/03 02:39:01;;;;;;;37.88;29.63;;;10.70;69.90;;;;;;5047738;28;20033;-83
2022/03/03 02:41:28;;;;;;;36.33;29.33;;;10.70;69.90;;;;;;5047299;28;20032;-82
2022/03/03 02:43:55;;;;;;;34.50;28.73;;;10.70;69.90;;;;;;5046769;28;20029;-84
2022/03/03 02:46:22;;;;;;;34.70;29.00;;;10.70;69.90;;;;;;5058965;28;20122;-83
2022/03/03 02:48:48;;;;;;;37.10;28.35;;;10.70;69.90;;;;;;5051657;28;20516;-83
2022/03/03 02:51:15;;;;;;;35.03;28.25;;;10.70;69.90;;;;;;5050384;28;20111;-83
2022/03/03 02:53:41;;;;;;;36.65;28.45;;;10.70;70.00;;;;;;5050483;28;20025;-82
2022/03/03 02:56:08;;;;;;;38.15;29.83;;;10.70;70.00;;;;;;5052500;28;20025;-82
2022/03/03 02:58:34;;;;;;;35.83;28.70;;;10.70;70.00;;;;;;5056007;28;20091;-81
2022/03/03 03:01:02;;;;;;;35.28;28.40;;;10.60;69.80;;;;;;5056906;28;20029;-82
2022/03/03 03:03:28;;;;;;;38.70;30.10;;;10.70;70.00;;;;;;5055633;28;20028;-81
2022/03/03 03:05:54;;;;;;;37.13;29.60;;;10.70;70.60;;;;;;5056985;28;20423;-82
2022/03/03 03:08:21;;;;;;;34.22;30.20;;;10.60;69.90;;;;;;5055604;28;20025;-82
2022/03/03 03:10:47;;;;;;;38.25;30.08;;;10.70;70.10;;;;;;5056756;28;20499;-82
2022/03/03 03:13:14;;;;;;;35.63;27.98;;;10.60;69.90;;;;;;5057006;28;20059;-81
2022/03/03 03:15:43;;;;;;;36.92;28.85;;;10.60;69.90;;;;;;5056748;28;20059;-82
2022/03/03 03:18:14;;;;;;;37.67;29.33;;;10.60;69.90;;;;;;5055955;28;20400;-83
2022/03/03 03:20:42;;;;;;;37.65;30.13;;;10.60;70.00;;;;;;5057141;28;20461;-84
2022/03/03 03:23:10;;;;;;;35.85;30.60;;;10.70;70.10;;;;;;5059349;28;20029;-83
2022/03/03 03:25:43;;;;;;;36.53;29.23;;;10.60;69.90;;;;;;5057587;28;20029;-83
2022/03/03 03:28:11;;;;;;;38.35;28.42;;;10.70;70.10;;;;;;5057373;28;20490;-82
2022/03/03 03:30:38;;;;;;;37.78;28.60;;;10.70;70.10;;;;;;5056019;28;20040;-82
2022/03/03 03:33:04;;;;;;;37.90;28.95;;;10.70;70.10;;;;;;5057032;28;20021;-82
2022/03/03 03:35:30;;;;;;;35.15;29.65;;;10.70;70.60;;;;;;5058155;28;20033;-83
2022/03/03 03:37:56;;;;;;;36.70;29.65;;;10.70;70.10;;;;;;5057283;28;20036;-82
2022/03/03 03:40:23;;;;;;;35.42;28.88;;;10.70;70.10;;;;;;5039146;28;20065;-82
2022/03/03 03:42:49;;;;;;;37.08;28.80;;;10.70;70.00;;;;;;5056861;28;20021;-82
2022/03/03 03:45:15;;;;;;;34.75;28.75;;;10.70;70.00;;;;;;5057130;28;20071;-82
2022/03/03 03:47:41;;;;;;;35.67;28.52;;;10.70;70.00;;;;;;5038614;28;20049;-82
2022/03/03 03:50:10;;;;;;;35.20;28.63;;;10.70;70.00;;;;;;5055288;28;20037;-82
2022/03/03 03:52:37;;;;;;;34.08;28.60;;;10.70;70.00;;;;;;5056395;28;20032;-82
2022/03/03 03:55:05;;;;;;;36.47;28.98;;;10.70;70.00;;;;;;5056279;28;20095;-83
2022/03/03 03:57:31;;;;;;;34.92;28.55;;;10.70;70.00;;;;;;5038655;28;20025;-83
2022/03/03 03:59:57;;;;;;;37.33;30.52;;;10.70;70.00;;;;;;5056286;28;20495;-82
2022/03/03 04:02:24;;;;;;;36.65;28.77;;;10.70;70.00;;;;;;5054800;28;20103;-83
2022/03/03 04:04:50;;;;;;;37.80;28.70;;;10.70;70.00;;;;;;5054817;28;20037;-82
2022/03/03 04:07:16;;;;;;;34.50;28.92;;;10.70;70.00;;;;;;5053023;28;20025;-83
2022/03/03 04:09:42;;;;;;;33.17;28.38;;;10.70;70.10;;;;;;5053201;28;20465;-83
2022/03/03 04:12:08;;;;;;;35.83;26.88;;;10.70;70.10;;;;;;5035866;28;20048;-85
2022/03/03 04:14:34;;;;;;;32.35;25.88;;;10.70;70.10;;;;;;5051996;28;20059;-84
2022/03/03 04:17:00;;;;;;;37.25;28.25;;;10.70;70.10;;;;;;5053358;28;20029;-84
2022/03/03 04:19:26;;;;;;;35.65;27.40;;;10.70;70.10;;;;;;5053352;28;20033;-85
2022/03/03 04:21:52;;;;;;;33.97;27.23;;;10.70;70.10;;;;;;5053210;28;20044;-86
2022/03/03 04:24:18;;;;;;;34.30;28.13;;;10.70;70.20;;;;;;5053119;28;20032;-85
2022/03/03 04:26:44;;;;;;;36.38;28.58;;;10.70;70.20;;;;;;5051849;28;20025;-83
2022/03/03 04:29:10;;;;;;;35.33;27.67;;;10.70;70.20;;;;;;5034999;28;20104;-81
2022/03/03 04:31:36;;;;;;;35.80;28.65;;;10.70;70.20;;;;;;5051206;28;20593;-82
2022/03/03 04:34:03;;;;;;;35.15;27.77;;;10.70;70.20;;;;;;5052151;28;20029;-82
2022/03/03 04:36:29;;;;;;;33.60;27.05;;;10.70;70.20;;;;;;5051374;28;20399;-82
2022/03/03 04:38:55;;;;;;;34.97;28.00;;;10.70;70.20;;;;;;5034652;28;20029;-82
2022/03/03 04:41:21;;;;;;;33.50;27.33;;;10.70;70.20;;;;;;5052413;28;20029;-82
2022/03/03 04:43:47;;;;;;;34.20;27.92;;;10.70;70.20;;;;;;5052806;28;20029;-82
2022/03/03 04:46:13;;;;;;;35.40;27.58;;;10.70;70.20;;;;;;5052220;28;20029;-82
2022/03/03 04:48:39;;;;;;;36.70;28.73;;;10.70;70.20;;;;;;5050696;28;20447;-81
2022/03/03 04:51:05;;;;;;;34.83;27.98;;;10.70;70.20;;;;;;5051856;28;20037;-82
2022/03/03 04:53:31;;;;;;;36.42;28.40;;;10.70;70.20;;;;;;5052413;28;20083;-80
2022/03/03 04:55:58;;;;;;;34.72;28.08;;;10.70;70.20;;;;;;5050521;28;20068;-81
2022/03/03 04:58:25;;;;;;;36.40;28.45;;;10.70;70.30;;;;;;5052831;28;20025;-81
2022/03/03 05:00:51;;;;;;;37.30;29.38;;;10.70;70.30;;;;;;5052400;28;20037;-81
2022/03/03 05:03:17;;;;;;;35.65;28.60;;;10.60;70.00;;;;;;5051534;28;20033;-82
2022/03/03 05:05:44;;;;;;;33.88;27.67;;;10.70;70.30;;;;;;5052224;28;20037;-81
2022/03/03 05:08:10;;;;;;;36.42;28.08;;;10.70;70.30;;;;;;5050365;28;20061;-80
2022/03/03 05:10:37;;;;;;;34.55;28.40;;;10.70;70.30;;;;;;5051730;28;20580;-80
2022/03/03 05:13:03;;;;;;;35.65;28.88;;;10.70;70.30;;;;;;5050352;28;20049;-81
2022/03/03 05:15:29;;;;;;;35.90;27.77;;;10.70;70.30;;;;;;5034188;28;20036;-81
2022/03/03 05:17:56;;;;;;;35.28;28.17;;;10.60;70.20;;;;;;5051836;28;20025;-82
2022/03/03 05:20:22;;;;;;;37.63;30.02;;;10.60;70.20;;;;;;5051351;28;20037;-83
2022/03/03 05:22:49;;;;;;;34.42;27.55;;;10.60;70.20;;;;;;5050525;28;20167;-83
2022/03/03 05:25:15;;;;;;;32.70;27.58;;;10.70;70.40;;;;;;5050748;28;20039;-83
2022/03/03 05:27:41;;;;;;;36.65;30.48;;;10.60;70.20;;;;;;5050420;28;20025;-83
2022/03/03 05:30:09;;;;;;;32.92;26.73;;;10.60;70.20;;;;;;5051951;28;20641;-83
2022/03/03 05:32:36;;;;;;;37.97;29.13;;;10.70;70.40;;;;;;5051725;28;20032;-84
2022/03/03 05:35:06;;;;;;;32.30;26.88;;;10.70;70.40;;;;;;5050592;28;20033;-83
2022/03/03 05:37:32;;;;;;;35.47;28.00;;;10.60;70.20;;;;;;5051635;28;20025;-83
2022/03/03 05:39:58;;;;;;;37.25;28.67;;;10.70;70.40;;;;;;5050250;28;20106;-82
2022/03/03 05:42:25;;;;;;;35.63;27.75;;;10.70;70.40;;;;;;5051462;28;20069;-81
2022/03/03 05:44:51;;;;;;;34.40;28.10;;;10.70;70.40;;;;;;5050327;28;20029;-80
2022/03/03 05:47:18;;;;;;;36.15;28.10;;;10.70;70.40;;;;;;5058027;28;20473;-81
2022/03/03 05:49:46;;;;;;;34.60;28.88;;;10.70;70.40;;;;;;5064251;28;20115;-87
2022/03/03 05:52:13;;;;;;;34.97;27.80;;;10.70;70.40;;;;;;5061869;28;20043;-84
2022/03/03 05:54:39;;;;;;;35.90;27.90;;;10.70;70.40;;;;;;5077744;28;20020;-84
2022/03/03 05:57:26;;;;;;;36.97;28.77;;;10.70;70.40;;;;;;5060470;28;20032;-82
2022/03/03 05:59:56;;;;;;;33.17;26.67;;;10.60;70.30;;;;;;5060180;28;20056;-83
2022/03/03 06:02:22;;;;;;;35.83;28.75;;;10.70;70.40;;;;;;5059735;28;20036;-84
2022/03/03 06:04:48;;;;;;;36.85;27.60;;;10.60;70.20;;;;;;5076486;28;20032;-88
2022/03/03 06:07:25;;;;;;;41.53;30.17;;;10.70;70.40;;;;;;5077967;28;20089;-80
2022/03/03 06:09:54;;;;;;;33.97;29.02;;;10.60;70.30;;;;;;5080569;28;20036;-81
2022/03/03 06:12:45;;;;;;;32.05;26.42;;;10.70;70.40;;;;;;5077643;28;20437;-81
2022/03/03 06:15:13;;;;;;;34.20;27.55;;;10.70;70.50;;;;;;5078683;28;20024;-80
2022/03/03 06:17:44;;;;;;;35.53;29.42;;;10.70;70.40;;;;;;5085206;28;20027;-80
2022/03/03 06:20:11;;;;;;;32.03;27.23;;;10.70;70.50;;;;;;5088152;28;20024;-79
2022/03/03 06:22:37;;;;;;;36.28;29.40;;;10.70;70.50;;;;;;5089364;28;20064;-79
2022/03/03 06:25:05;;;;;;;34.63;28.58;;;10.70;70.50;;;;;;5075162;28;20035;-78
2022/03/03 06:27:32;;;;;;;36.60;28.75;;;10.70;70.50;;;;;;5051070;28;20570;-78
2022/03/03 06:29:58;;;;;;;33.90;27.08;;;10.70;70.50;;;;;;5078120;28;20152;-78
2022/03/03 06:32:25;;;;;;;36.95;28.42;;;10.70;70.50;;;;;;5048254;28;20036;-81
2022/03/03 06:34:51;;;;;;;36.45;29.23;;;10.70;70.50;;;;;;5079859;28;20031;-79
2022/03/03 06:37:17;;;;;;;35.83;28.35;;;10.70;70.40;;;;;;5077987;28;20046;-78
2022/03/03 06:39:43;;;;;;;35.97;28.75;;;10.70;70.40;;;;;;5067385;28;20402;-77
2022/03/03 06:42:09;;;;;;;34.95;26.20;;;10.70;70.40;;;;;;5067438;28;20143;-77
2022/03/03 06:44:35;;;;;;;37.55;28.77;;;10.70;70.40;;;;;;5066645;28;20472;-78
2022/03/03 06:47:02;;;;;;;36.35;28.92;;;10.70;70.40;;;;;;5032552;28;20036;-77
2022/03/03 06:49:29;;;;;;;33.42;27.00;;;10.80;71.10;;;;;;5066512;28;20024;-77
2022/03/03 06:51:57;;;;;;;35.40;28.42;;;10.80;70.60;;;;;;5051862;28;20040;-77
2022/03/03 06:54:23;;;;;;;38.28;28.70;;;10.70;70.40;;;;;;5075026;28;20021;-77
2022/03/03 06:56:53;;;;;;;38.72;29.55;;;10.80;70.60;;;;;;5081018;28;20403;-77
2022/03/03 06:59:23;;;;;;;35.83;27.45;;;10.80;70.60;;;;;;5067353;28;20527;-77
2022/03/03 07:01:50;;;;;;;37.65;28.42;;;10.70;70.40;;;;;;5086881;28;20032;-76
2022/03/03 07:04:18;;;;;;;34.75;27.85;;;10.80;70.60;;;;;;5075282;28;20572;-79
2022/03/03 07:06:46;;;;;;;34.90;27.50;;;10.80;70.60;;;;;;5066790;28;20051;-80
2022/03/03 07:09:12;;;;;;;34.15;27.73;;;10.80;70.70;;;;;;5081522;28;20127;-79
2022/03/03 07:11:41;;;;;;;32.72;25.75;;;10.80;70.70;;;;;;5087354;28;20042;-78
2022/03/03 07:14:08;;;;;;;37.15;27.80;;;10.80;70.80;;;;;;5087194;28;20024;-80
2022/03/03 07:16:47;;;;;;;35.67;27.38;;;10.80;71.00;;;;;;5068381;28;20047;-78
2022/03/03 07:19:28;;;;;;;35.13;27.80;;;10.80;71.00;;;;;;5085123;28;20036;-80
2022/03/03 07:22:11;;;;;;;37.20;27.75;;;10.90;71.20;;;;;;5068486;28;20031;-81
2022/03/03 07:25:06;;;;;;;35.55;26.13;;;10.90;71.20;;;;;;5070679;28;20066;-80
2022/03/03 07:27:34;;;;;;;35.08;27.50;;;10.90;71.20;;;;;;5065762;28;20064;-79
2022/03/03 07:30:06;;;;;;;34.47;27.50;;;10.90;71.10;;;;;;5065217;28;20036;-83
2022/03/03 07:32:34;;;;;;;36.60;29.08;;;10.90;71.10;;;;;;5046751;28;20037;-80
2022/03/03 07:35:12;;;;;;;36.17;27.10;;;10.90;71.10;;;;;;5064634;28;20079;-79
2022/03/03 07:38:05;;;;;;;33.42;26.42;;;11.00;71.30;;;;;;5050053;28;20061;-80
2022/03/03 07:40:32;;;;;;;33.70;26.95;;;11.00;71.20;;;;;;5065021;28;20082;-82
2022/03/03 07:42:59;;;;;;;32.92;26.25;;;11.10;71.40;;;;;;5067537;28;20124;-79
2022/03/03 07:45:26;;;;;;;38.40;29.25;;;11.00;71.10;;;;;;5052504;28;20532;-82
2022/03/03 07:47:55;;;;;;;35.80;28.65;;;11.10;71.20;;;;;;5051883;28;20431;-81
2022/03/03 07:50:22;;;;;;;33.53;26.38;;;11.10;71.20;;;;;;5070031;28;20081;-82
2022/03/03 07:52:49;;;;;;;35.83;27.83;;;11.10;71.20;;;;;;5053370;28;20036;-80
2022/03/03 07:55:16;;;;;;;32.33;26.45;;;11.10;71.20;;;;;;5065442;28;20415;-80
2022/03/03 07:57:58;;;;;;;35.35;27.30;;;11.10;71.20;;;;;;5088033;28;20111;-80
2022/03/03 08:00:31;;;;;;;36.10;28.88;;;11.10;71.20;;;;;;5085337;28;20363;-81
2022/03/03 08:02:59;;;;;;;38.35;29.42;;;11.20;71.30;;;;;;5090480;28;20082;-80
2022/03/03 08:05:29;;;;;;;37.20;28.20;;;11.20;71.20;;;;;;5089718;28;20024;-79
2022/03/03 08:07:57;;;;;;;36.53;27.60;;;11.20;71.20;;;;;;5089988;28;20391;-80
2022/03/03 08:10:26;;;;;;;37.78;29.20;;;11.20;71.20;;;;;;5071938;28;20079;-80
2022/03/03 08:12:56;;;;;;;37.13;28.35;;;11.20;71.20;;;;;;5071904;28;20657;-80
2022/03/03 08:15:23;;;;;;;35.35;27.95;;;11.30;71.30;;;;;;5089965;28;20496;-79
2022/03/03 08:17:51;;;;;;;37.25;29.23;;;11.20;71.10;;;;;;5071814;28;20384;-80
2022/03/03 08:20:19;;;;;;;33.90;28.65;;;11.20;71.10;;;;;;5089864;28;20086;-80
2022/03/03 08:22:46;;;;;;;35.03;27.35;;;11.30;71.20;;;;;;5089909;28;20024;-80
2022/03/03 08:25:13;;;;;;;37.50;28.42;;;11.30;71.20;;;;;;5071821;28;20494;-81
2022/03/03 08:27:40;;;;;;;37.85;28.30;;;11.40;71.30;;;;;;5089588;28;20054;-80
2022/03/03 08:30:09;;;;;;;35.00;27.50;;;11.40;71.30;;;;;;5089808;28;20406;-80
2022/03/03 08:32:38;;;;;;;35.38;28.65;;;11.40;71.20;;;;;;5089673;28;20028;-79
2022/03/03 08:35:16;;;;;;;36.55;27.20;;;11.40;71.20;;;;;;5089611;28;20028;-81
2022/03/03 08:37:49;;;;;;;36.25;27.05;;;11.50;71.30;;;;;;5087500;28;20039;-81
2022/03/03 08:40:19;;;;;;;;;;;11.50;71.20;;;;;;5069704;28;20035;-80
2022/03/03 08:42:56;;;;;;;31.73;25.38;;;11.60;71.20;;;;;;5051651;28;19919;-80
2022/03/03 08:45:24;;;;;;;33.10;26.50;;;11.60;71.00;;;;;;5069547;28;20032;-82
2022/03/03 08:48:19;;;;;;;35.67;26.80;;;11.60;71.00;;;;;;5069386;28;20053;-84
2022/03/03 08:50:48;;;;;;;33.33;25.95;;;11.70;71.20;;;;;;5067417;28;20052;-84
2022/03/03 08:53:14;;;;;;;36.63;28.27;;;11.70;71.10;;;;;;5051722;28;20029;-81
2022/03/03 08:55:41;;;;;;;34.03;26.42;;;11.70;71.00;;;;;;5051178;28;20557;-80
2022/03/03 08:58:08;;;;;;;35.08;28.23;;;11.70;71.00;;;;;;5057273;28;20028;-80
2022/03/03 09:00:34;;;;;;;33.97;27.33;;;11.80;71.20;;;;;;5089695;28;20447;-80
2022/03/03 09:03:03;;;;;;;33.90;25.85;;;11.80;71.10;;;;;;5089858;28;20025;-80
2022/03/03 09:05:29;;;;;;;32.05;24.88;;;11.80;71.10;;;;;;5071281;28;20444;-80
2022/03/03 09:07:55;;;;;;;32.92;26.27;;;11.90;71.20;;;;;;5071011;28;20050;-80
2022/03/03 09:10:21;;;;;;;34.38;26.10;;;11.90;71.10;;;;;;5088728;28;20047;-79
2022/03/03 09:12:50;;;;;;;31.52;26.35;;;11.90;71.10;;;;;;5089211;28;20059;-79
2022/03/03 09:15:16;;;;;;;32.13;26.05;;;12.00;71.20;;;;;;5088793;28;20138;-80
2022/03/03 09:17:42;;;;;;;30.38;25.15;;;12.00;71.10;;;;;;5070072;28;20475;-79
2022/03/03 09:20:13;;;;;;;31.02;25.30;;;12.00;71.10;;;;;;5089020;28;20031;-81
2022/03/03 09:22:44;;;;;;;32.50;25.30;;;12.10;71.20;;;;;;5088188;28;20433;-81
2022/03/03 09:25:11;;;;;;;32.05;24.90;;;12.10;71.10;;;;;;5090224;28;20493;-79
2022/03/03 09:27:38;;;;;;;31.08;24.80;;;12.20;71.40;;;;;;5054090;28;20161;-94
2022/03/03 09:30:06;;;;;;;31.85;25.15;;;12.20;71.10;;;;;;5057449;28;20032;-83
2022/03/03 09:32:32;;;;;;;30.23;23.88;;;12.20;71.10;;;;;;5076869;28;20090;-86
2022/03/03 09:34:58;;;;;;;28.05;24.23;;;12.20;71.00;;;;;;5074951;28;20024;-82
2022/03/03 09:37:25;;;;;;;31.25;25.70;;;12.30;71.00;;;;;;5072523;28;20086;-83
2022/03/03 09:39:51;;;;;;;28.05;23.48;;;12.30;71.00;;;;;;5055116;28;20063;-84
2022/03/03 09:42:17;;;;;;;29.20;23.50;;;12.30;71.00;;;;;;5072045;28;20119;-77
2022/03/03 09:44:46;;;;;;;29.27;23.38;;;12.40;71.10;;;;;;5069955;28;20088;-81
2022/03/03 09:47:12;;;;;;;27.58;23.20;;;12.40;71.10;;;;;;5069089;28;20142;-77
2022/03/03 09:49:39;;;;;;;31.67;24.33;;;12.40;71.10;;;;;;5048863;28;20035;-78
2022/03/03 09:52:17;;;;;;;28.65;22.75;;;12.40;71.10;;;;;;5081352;28;20063;-81
2022/03/03 09:54:48;;;;;;;28.58;23.63;;;12.40;71.10;;;;;;5050861;28;20483;-78
2022/03/03 09:57:17;;;;;;;28.30;23.25;;;12.40;71.00;;;;;;5067838;28;20155;-80
2022/03/03 09:59:44;;;;;;;24.92;20.65;;;12.50;71.20;;;;;;5067987;28;20036;-81
2022/03/03 10:02:11;;;;;;;25.95;21.70;;;12.50;71.20;;;;;;5088020;28;20060;-79
2022/03/03 10:04:37;;;;;;;26.42;21.80;;;12.50;71.20;;;;;;5069947;28;20081;-78
2022/03/03 10:07:08;;;;;;;26.50;21.65;;;12.60;71.50;;;;;;5069702;28;20062;-79
2022/03/03 10:09:59;;;;;;;26.63;21.15;;;12.60;71.40;;;;;;5089002;28;20051;-81
2022/03/03 10:12:22;;;;;;;27.65;21.10;;;12.70;71.50;;;;;;5069892;28;20100;-79
2022/03/03 10:14:49;;;;;;;26.17;20.45;;;12.80;71.50;;;;;;5074192;28;20032;-79
2022/03/03 10:17:16;;;;;;;24.48;19.60;;;12.80;71.40;;;;;;5087771;28;20540;-79
2022/03/03 10:19:53;;;;;;;27.25;21.00;;;12.90;71.40;;;;;;5074546;28;20086;-79
2022/03/03 10:22:43;;;;;;;22.67;18.25;;;13.00;71.50;;;;;;5069722;28;20062;-79
2022/03/03 10:25:10;;;;;;;25.77;19.92;;;13.00;71.30;;;;;;5087915;28;20446;-80
2022/03/03 10:27:37;;;;;;;25.33;21.30;;;13.10;71.30;;;;;;5087741;28;20127;-80
2022/03/03 10:30:06;;;;;;;22.08;19.35;;;13.10;71.20;;;;;;5087607;28;20031;-80
2022/03/03 10:32:35;;;;;;;21.88;19.35;;;13.20;71.30;;;;;;5087741;28;20471;-79
2022/03/03 10:35:13;;;;;;;30.90;21.73;;;13.20;71.20;;;;;;5069294;28;20031;-79
2022/03/03 10:37:39;;;;;;;22.85;19.33;;;13.20;71.20;;;;;;5087814;28;20050;-80
2022/03/03 10:40:11;;;;;;;24.15;19.80;;;13.20;71.20;;;;;;5069450;28;20089;-81
2022/03/03 10:42:41;;;;;;;23.10;18.95;;;13.30;71.30;;;;;;5087451;28;20544;-79
2022/03/03 10:45:08;;;;;;;24.17;18.92;;;13.30;71.30;;;;;;5087542;28;20107;-80
2022/03/03 10:47:34;;;;;;;24.10;19.85;;;13.20;71.10;;;;;;5086655;28;20064;-79
2022/03/03 10:50:01;;;;;;;23.15;19.05;;;13.20;71.20;;;;;;5069224;28;20185;-80
2022/03/03 10:52:35;;;;;;;23.45;19.60;;;13.20;71.20;;;;;;5068835;28;20082;-80
2022/03/03 10:55:17;;;;;;;23.27;20.50;;;13.20;71.20;;;;;;5086781;28;20020;-80
2022/03/03 10:57:45;;;;;;;26.08;20.38;;;13.20;71.30;;;;;;5068877;28;20598;-81
2022/03/03 11:00:11;;;;;;;23.10;19.52;;;13.20;71.30;;;;;;5087039;28;20115;-81
2022/03/03 11:02:41;;;;;;;22.25;17.92;;;13.20;71.30;;;;;;5086796;28;20038;-80
2022/03/03 11:05:09;;;;;;;24.20;19.90;;;13.20;71.20;;;;;;5087391;28;20535;-81
2022/03/03 11:07:37;;;;;;;23.27;19.70;;;13.30;71.40;;;;;;5067805;28;20093;-80
2022/03/03 11:10:04;;;;;;;23.58;19.13;;;13.30;71.40;;;;;;5068906;28;20036;-80
2022/03/03 11:12:30;;;;;;;24.05;19.83;;;13.30;71.30;;;;;;5087101;28;20036;-80
2022/03/03 11:14:57;;;;;;;22.98;19.70;;;13.30;71.20;;;;;;5069279;28;20081;-91
2022/03/03 11:17:23;;;;;;;24.42;19.55;;;13.40;71.40;;;;;;5071311;28;20032;-86
2022/03/03 11:19:58;;;;;;;25.48;19.35;;;13.40;71.30;;;;;;5091595;28;20020;-89
2022/03/03 11:22:24;;;;;;;23.60;18.73;;;13.40;71.20;;;;;;5073161;28;20036;-85
2022/03/03 11:24:51;;;;;;;22.55;18.17;;;13.50;71.30;;;;;;5091941;28;20166;-86
2022/03/03 11:27:17;;;;;;;21.90;18.63;;;13.50;71.20;;;;;;5073891;28;20044;-89
2022/03/03 11:30:22;;;;;;;23.38;18.40;;;13.60;71.30;;;;;;5073872;28;20082;-87
2022/03/03 11:33:17;;;;;;;22.50;19.33;;;13.70;71.30;;;;;;5073174;28;20447;-86
2022/03/03 11:36:08;;;;;;;20.65;17.08;;;13.70;71.20;;;;;;5091986;28;20115;-81
2022/03/03 11:38:50;;;;;;;20.98;16.05;;;13.80;71.30;;;;;;5090246;28;20043;-84
2022/03/03 11:41:16;;;;;;;21.42;17.80;;;13.80;71.20;;;;;;5073025;28;20024;-87
2022/03/03 11:43:59;;;;;;;19.95;16.52;;;13.90;71.20;;;;;;5091452;28;20032;-82
2022/03/03 11:46:44;;;;;;;20.77;15.90;;;14.00;71.30;;;;;;5072813;28;20051;-87
2022/03/03 11:49:25;;;;;;;20.05;16.05;;;14.00;71.20;;;;;;5090920;28;20053;-88
2022/03/03 11:51:55;;;;;;;18.10;15.15;;;14.00;71.20;;;;;;5068037;28;20041;-83
2022/03/03 11:54:26;;;;;;;19.27;15.18;;;14.00;71.20;;;;;;5070848;28;20029;-79
2022/03/03 11:57:04;;;;;;;15.25;12.82;;;14.00;71.20;;;;;;5053527;28;20503;-85
2022/03/03 11:59:42;;;;;;;14.82;11.90;;;14.10;71.50;;;;;;5068280;28;20024;-89
2022/03/03 12:02:09;;;;;;;14.05;11.15;;;14.20;71.70;;;;;;5090089;28;20028;-80
2022/03/03 12:04:37;;;;;;;14.35;11.07;;;14.20;71.70;;;;;;5090699;28;20062;-79
2022/03/03 12:07:04;;;;;;;13.13;10.70;;;14.30;71.80;;;;;;5090849;28;20498;-80
2022/03/03 12:09:33;;;;;;;14.02;11.18;;;14.30;71.70;;;;;;5061725;28;20020;-80
2022/03/03 12:12:10;;;;;;;13.50;12.02;;;14.40;71.80;;;;;;5052271;28;20044;-81
2022/03/03 12:14:39;;;;;;;12.90;11.13;;;14.40;71.80;;;;;;5052439;28;20025;-81
2022/03/03 12:17:41;;;;;;;11.50;9.43;;;14.50;71.80;;;;;;5052591;28;20178;-83
2022/03/03 12:20:33;;;;;;;12.20;9.27;;;14.50;71.70;;;;;;5070221;28;20024;-85
2022/03/03 12:23:12;;;;;;;11.52;9.50;;;14.60;71.70;;;;;;5052497;28;20516;-85
2022/03/03 12:25:55;;;;;;;10.57;9.48;;;14.60;71.70;;;;;;5069973;28;20060;-82
2022/03/03 12:28:41;;;;;;;9.48;8.50;;;14.60;71.70;;;;;;5056972;28;20126;-83
2022/03/03 12:31:40;;;;;;;9.65;7.78;;;14.50;71.50;;;;;;5078622;28;20037;-81
2022/03/03 12:34:08;;;;;;;8.63;7.53;;;14.50;71.50;;;;;;5069639;28;20114;-82
2022/03/03 12:36:44;;;;;;;8.15;6.68;;;14.50;71.60;;;;;;5069768;28;20497;-82
2022/03/03 12:39:12;;;;;;;9.43;7.78;;;14.40;71.50;;;;;;5051370;28;20392;-81